Itara — EA4760 — position and weather

sailwx.info

Track history (hours):
 
Tides and Currents Weather Stations Pressure Air Temp Water Temp Dewpoint Dewpoint Depression Visibility Wind Speed Wind Dir Waves Ship Positions

Itara

Last reported at 2018-Feb-19 17:49 UTC. Time now 2018-Feb-19 22:16 UTC.
Position N 28°09' W 015°25'.

Length 18 m.

Type: Port tender. MMSI: 224016190.

Date/timePositionNaut miles runAvg speedWind from/ knotsBaromVisibWave heightAir tempDewpointWater temp
2018-Feb-19 17:49N 28°09' W 015°25'0 0.0
2018-Feb-19 17:22N 28°09' W 015°25'0 0.0
2018-Feb-19 16:52N 28°09' W 015°25'0 0.0
2018-Feb-19 16:29N 28°09' W 015°25'0 0.0
2018-Feb-19 15:59N 28°09' W 015°25'0 0.0
2018-Feb-19 15:29N 28°09' W 015°25'0 0.0
2018-Feb-19 14:59N 28°09' W 015°25'0 0.0
2018-Feb-19 08:31N 28°09' W 015°25'0 7.9
2018-Feb-19 08:30N 28°09' W 015°25'1 2.5
2018-Feb-19 07:55N 28°08' W 015°24'2 2.8
2018-Feb-19 07:22N 28°09' W 015°25'0 0.0
2018-Feb-19 02:11N 28°09' W 015°25'1 3.4
2018-Feb-19 01:59N 28°08' W 015°25'3 6.7
2018-Feb-19 01:28N 28°08' W 015°21'3 6.5
2018-Feb-19 00:57N 28°08' W 015°25'1 0.4
2018-Feb-18 22:58N 28°09' W 015°25'2 3.3
2018-Feb-18 22:25N 28°07' W 015°25'1 1.5
2018-Feb-18 21:55N 28°08' W 015°25'1 2.8
2018-Feb-18 21:30N 28°09' W 015°25'1 1.7
2018-Feb-18 21:00N 28°08' W 015°25'1 1.7
2018-Feb-18 20:29N 28°09' W 015°25'1 2.5
2018-Feb-18 19:58N 28°08' W 015°25'1 2.5
2018-Feb-18 19:27N 28°06' W 015°24'3 4.5
2018-Feb-18 18:52N 28°09' W 015°25'0 0.0
2018-Feb-18 18:22N 28°09' W 015°25'0 0.0
2018-Feb-18 17:52N 28°09' W 015°25'0 0.0
2018-Feb-18 17:22N 28°09' W 015°25'1 3.8
2018-Feb-18 17:00N 28°07' W 015°25'2 3.4
2018-Feb-18 16:26N 28°06' W 015°24'1 1.6
2018-Feb-18 15:59N 28°05' W 015°24'0 0.6
2018-Feb-18 15:28N 28°06' W 015°24'1 2.9
2018-Feb-18 15:00N 28°07' W 015°24'1 0.3
2018-Feb-18 13:04N 28°06' W 015°24'0 0.1
2018-Feb-18 12:55N 28°06' W 015°24'1 2.7
2018-Feb-18 12:30N 28°07' W 015°25'2 2.3
2018-Feb-18 11:47N 28°09' W 015°25'0 0.0
2018-Feb-18 11:28N 28°09' W 015°25'0 0.0
2018-Feb-16 12:30N 28°09' W 015°25'0 0.0
2018-Feb-16 11:59N 28°09' W 015°25'0 0.0
2018-Feb-16 05:56N 28°09' W 015°25'3 7.4
2018-Feb-16 05:30N 28°06' W 015°23'3 4.8
2018-Feb-16 04:50N 28°09' W 015°25'2 5.0
2018-Feb-16 04:29N 28°08' W 015°24'1 1.2
2018-Feb-16 04:01N 28°09' W 015°24'2 0.2
2018-Feb-15 19:39N 28°09' W 015°25'0 1.1
2018-Feb-15 19:27N 28°09' W 015°25'2 3.2
2018-Feb-15 18:57N 28°08' W 015°24'2 3.4
2018-Feb-15 18:27N 28°09' W 015°25'2 3.9
2018-Feb-15 18:00N 28°08' W 015°24'2 1.2
2018-Feb-15 16:29N 28°09' W 015°25'2 4.2
2018-Feb-15 15:56N 28°07' W 015°24'2 4.6
2018-Feb-15 15:27N 28°08' W 015°26'2 5.0
2018-Feb-15 14:59N 28°07' W 015°24'0 0.1
2018-Feb-15 14:30N 28°07' W 015°24'0 0.6
2018-Feb-15 13:58N 28°06' W 015°24'0 0.7
2018-Feb-15 13:27N 28°07' W 015°24'2 5.0
2018-Feb-15 12:57N 28°09' W 015°25'0 0.5
2018-Feb-15 12:23N 28°09' W 015°25'2 4.4
2018-Feb-15 12:00N 28°07' W 015°24'3 4.4
2018-Feb-15 11:26N 28°08' W 015°22'0 0.8
2018-Feb-15 10:59N 28°08' W 015°21'1 1.1
2018-Feb-15 10:28N 28°07' W 015°21'1 1.8
2018-Feb-15 09:58N 28°07' W 015°20'2 3.0
2018-Feb-15 09:27N 28°07' W 015°22'3 6.5
2018-Feb-15 08:57N 28°09' W 015°25'0 0.3
2018-Feb-15 08:27N 28°09' W 015°25'0 0.0
2018-Feb-15 07:57N 28°09' W 015°25'0 0.0
2018-Feb-15 07:27N 28°09' W 015°25'0 0.0
2018-Feb-14 19:08N 28°09' W 015°25'0 0.0
2018-Feb-14 18:53N 28°09' W 015°25'1 1.6
2018-Feb-14 18:30N 28°08' W 015°25'3 6.3
2018-Feb-14 17:58N 28°05' W 015°23'2 3.7
2018-Feb-14 17:30N 28°03' W 015°24'1 2.1
2018-Feb-14 16:55N 28°05' W 015°23'2 5.9
2018-Feb-14 16:30N 28°07' W 015°24'2 3.7
2018-Feb-14 15:54N 28°09' W 015°25'1 2.7
2018-Feb-14 15:30N 28°08' W 015°25'3 6.0
2018-Feb-14 15:00N 28°08' W 015°22'3 5.4
2018-Feb-14 14:30N 28°06' W 015°23'1 1.7
2018-Feb-14 14:00N 28°06' W 015°24'3 5.4
2018-Feb-14 13:30N 28°09' W 015°25'1 2.0
2018-Feb-14 13:00N 28°08' W 015°25'2 3.5
2018-Feb-14 12:30N 28°06' W 015°24'0 1.0
2018-Feb-14 12:00N 28°06' W 015°23'2 4.1
2018-Feb-14 11:30N 28°08' W 015°25'1 2.3
2018-Feb-14 11:00N 28°09' W 015°25'0 0.0
2018-Feb-14 10:30N 28°09' W 015°25'0 0.0
2018-Feb-14 10:00N 28°09' W 015°25'0 0.0
2018-Feb-14 09:27N 28°09' W 015°25'1 2.2
2018-Feb-14 08:57N 28°08' W 015°25'4 5.2
2018-Feb-14 08:16N 28°04' W 015°23'2 6.4
2018-Feb-14 07:55N 28°07' W 015°24'2 5.3
2018-Feb-14 07:27N 28°09' W 015°25'0 0.0
2018-Feb-13 11:06N 28°09' W 015°25'0 2.9
2018-Feb-13 11:00N 28°09' W 015°25'1 1.7
2018-Feb-13 10:20N 28°08' W 015°25'0 0.0
2018-Feb-13 09:49N 28°08' W 015°25'0 0.0
2018-Feb-13 09:19N 28°07' W 015°25'0 0.0
2018-Feb-13 08:58N 28°07' W 015°25'0 0.1
2018-Feb-13 08:30N 28°07' W 015°25'1 2.7
2018-Feb-13 07:59N 28°09' W 015°25'0 0.0
2018-Feb-12 07:50N 28°09' W 015°25'0 0.0
2018-Feb-12 07:20N 28°09' W 015°25'0 0.0
2018-Feb-12 06:12N 28°09' W 015°25'1 7.1
2018-Feb-12 06:00N 28°07' W 015°25'3 5.8
2018-Feb-12 05:30N 28°07' W 015°21'1 2.8
2018-Feb-12 05:00N 28°07' W 015°23'3 4.8
2018-Feb-12 04:28N 28°09' W 015°25'0 0.0
2018-Feb-11 23:32N 28°09' W 015°25'0 0.0
2018-Feb-11 23:30N 28°09' W 015°25'2 4.2
2018-Feb-11 23:00N 28°07' W 015°25'2 0.7
2018-Feb-11 19:49N 28°09' W 015°25'2 6.0
2018-Feb-11 19:26N 28°07' W 015°24'1 1.6
2018-Feb-11 18:53N 28°08' W 015°25'1 3.2
2018-Feb-11 18:28N 28°09' W 015°25'0 0.0
2018-Feb-11 17:59N 28°09' W 015°25'3 6.7
2018-Feb-11 17:30N 28°06' W 015°24'1 2.0
2018-Feb-11 17:00N 28°07' W 015°24'2 4.5
2018-Feb-11 16:30N 28°09' W 015°25'1 2.0
2018-Feb-11 15:55N 28°08' W 015°25'0 1.1
2018-Feb-11 15:30N 28°07' W 015°24'2 3.7
2018-Feb-11 14:58N 28°06' W 015°23'2 4.9
2018-Feb-11 14:28N 28°08' W 015°25'1 0.3
2018-Feb-11 11:12N 28°09' W 015°25'2 5.6
2018-Feb-11 10:55N 28°07' W 015°25'1 2.8
2018-Feb-11 10:25N 28°09' W 015°25'0 0.3
2018-Feb-11 09:59N 28°09' W 015°25'2 3.9
2018-Feb-11 09:30N 28°07' W 015°25'3 6.4
2018-Feb-11 09:00N 28°05' W 015°22'1 2.5
2018-Feb-11 08:29N 28°06' W 015°22'2 3.2
2018-Feb-11 08:00N 28°07' W 015°23'  
Track history (hours):
 
Tides and Currents Weather Stations Pressure Air Temp Water Temp Dewpoint Dewpoint Depression Visibility Wind Speed Wind Dir Waves Ship Positions

Itara

Last reported at 2018-Feb-19 17:49 UTC. Time now 2018-Feb-19 22:16 UTC.
Position N 28°09' W 015°25'.

Length 18 m.

Type: Port tender. MMSI: 224016190.

Date/timePositionNaut miles runAvg speedWind from/ knotsBaromVisibWave heightAir tempDewpointWater temp
2018-Feb-19 17:49N 28°09' W 015°25'0 0.0
2018-Feb-19 17:22N 28°09' W 015°25'0 0.0
2018-Feb-19 16:52N 28°09' W 015°25'0 0.0
2018-Feb-19 16:29N 28°09' W 015°25'0 0.0
2018-Feb-19 15:59N 28°09' W 015°25'0 0.0
2018-Feb-19 15:29N 28°09' W 015°25'0 0.0
2018-Feb-19 14:59N 28°09' W 015°25'0 0.0
2018-Feb-19 08:31N 28°09' W 015°25'0 7.9
2018-Feb-19 08:30N 28°09' W 015°25'1 2.5
2018-Feb-19 07:55N 28°08' W 015°24'2 2.8
2018-Feb-19 07:22N 28°09' W 015°25'0 0.0
2018-Feb-19 02:11N 28°09' W 015°25'1 3.4
2018-Feb-19 01:59N 28°08' W 015°25'3 6.7
2018-Feb-19 01:28N 28°08' W 015°21'3 6.5
2018-Feb-19 00:57N 28°08' W 015°25'1 0.4
2018-Feb-18 22:58N 28°09' W 015°25'2 3.3
2018-Feb-18 22:25N 28°07' W 015°25'1 1.5
2018-Feb-18 21:55N 28°08' W 015°25'1 2.8
2018-Feb-18 21:30N 28°09' W 015°25'1 1.7
2018-Feb-18 21:00N 28°08' W 015°25'1 1.7
2018-Feb-18 20:29N 28°09' W 015°25'1 2.5
2018-Feb-18 19:58N 28°08' W 015°25'1 2.5
2018-Feb-18 19:27N 28°06' W 015°24'3 4.5
2018-Feb-18 18:52N 28°09' W 015°25'0 0.0
2018-Feb-18 18:22N 28°09' W 015°25'0 0.0
2018-Feb-18 17:52N 28°09' W 015°25'0 0.0
2018-Feb-18 17:22N 28°09' W 015°25'1 3.8
2018-Feb-18 17:00N 28°07' W 015°25'2 3.4
2018-Feb-18 16:26N 28°06' W 015°24'1 1.6
2018-Feb-18 15:59N 28°05' W 015°24'0 0.6
2018-Feb-18 15:28N 28°06' W 015°24'1 2.9
2018-Feb-18 15:00N 28°07' W 015°24'1 0.3
2018-Feb-18 13:04N 28°06' W 015°24'0 0.1
2018-Feb-18 12:55N 28°06' W 015°24'1 2.7
2018-Feb-18 12:30N 28°07' W 015°25'2 2.3
2018-Feb-18 11:47N 28°09' W 015°25'0 0.0
2018-Feb-18 11:28N 28°09' W 015°25'0 0.0
2018-Feb-16 12:30N 28°09' W 015°25'0 0.0
2018-Feb-16 11:59N 28°09' W 015°25'0 0.0
2018-Feb-16 05:56N 28°09' W 015°25'3 7.4
2018-Feb-16 05:30N 28°06' W 015°23'3 4.8
2018-Feb-16 04:50N 28°09' W 015°25'2 5.0
2018-Feb-16 04:29N 28°08' W 015°24'1 1.2
2018-Feb-16 04:01N 28°09' W 015°24'2 0.2
2018-Feb-15 19:39N 28°09' W 015°25'0 1.1
2018-Feb-15 19:27N 28°09' W 015°25'2 3.2
2018-Feb-15 18:57N 28°08' W 015°24'2 3.4
2018-Feb-15 18:27N 28°09' W 015°25'2 3.9
2018-Feb-15 18:00N 28°08' W 015°24'2 1.2
2018-Feb-15 16:29N 28°09' W 015°25'2 4.2
2018-Feb-15 15:56N 28°07' W 015°24'2 4.6
2018-Feb-15 15:27N 28°08' W 015°26'2 5.0
2018-Feb-15 14:59N 28°07' W 015°24'0 0.1
2018-Feb-15 14:30N 28°07' W 015°24'0 0.6
2018-Feb-15 13:58N 28°06' W 015°24'0 0.7
2018-Feb-15 13:27N 28°07' W 015°24'2 5.0
2018-Feb-15 12:57N 28°09' W 015°25'0 0.5
2018-Feb-15 12:23N 28°09' W 015°25'2 4.4
2018-Feb-15 12:00N 28°07' W 015°24'3 4.4
2018-Feb-15 11:26N 28°08' W 015°22'0 0.8
2018-Feb-15 10:59N 28°08' W 015°21'1 1.1
2018-Feb-15 10:28N 28°07' W 015°21'1 1.8
2018-Feb-15 09:58N 28°07' W 015°20'2 3.0
2018-Feb-15 09:27N 28°07' W 015°22'3 6.5
2018-Feb-15 08:57N 28°09' W 015°25'0 0.3
2018-Feb-15 08:27N 28°09' W 015°25'0 0.0
2018-Feb-15 07:57N 28°09' W 015°25'0 0.0
2018-Feb-15 07:27N 28°09' W 015°25'0 0.0
2018-Feb-14 19:08N 28°09' W 015°25'0 0.0
2018-Feb-14 18:53N 28°09' W 015°25'1 1.6
2018-Feb-14 18:30N 28°08' W 015°25'3 6.3
2018-Feb-14 17:58N 28°05' W 015°23'2 3.7
2018-Feb-14 17:30N 28°03' W 015°24'1 2.1
2018-Feb-14 16:55N 28°05' W 015°23'2 5.9
2018-Feb-14 16:30N 28°07' W 015°24'2 3.7
2018-Feb-14 15:54N 28°09' W 015°25'1 2.7
2018-Feb-14 15:30N 28°08' W 015°25'3 6.0
2018-Feb-14 15:00N 28°08' W 015°22'3 5.4
2018-Feb-14 14:30N 28°06' W 015°23'1 1.7
2018-Feb-14 14:00N 28°06' W 015°24'3 5.4
2018-Feb-14 13:30N 28°09' W 015°25'1 2.0
2018-Feb-14 13:00N 28°08' W 015°25'2 3.5
2018-Feb-14 12:30N 28°06' W 015°24'0 1.0
2018-Feb-14 12:00N 28°06' W 015°23'2 4.1
2018-Feb-14 11:30N 28°08' W 015°25'1 2.3
2018-Feb-14 11:00N 28°09' W 015°25'0 0.0
2018-Feb-14 10:30N 28°09' W 015°25'0 0.0
2018-Feb-14 10:00N 28°09' W 015°25'0 0.0
2018-Feb-14 09:27N 28°09' W 015°25'1 2.2
2018-Feb-14 08:57N 28°08' W 015°25'4 5.2
2018-Feb-14 08:16N 28°04' W 015°23'2 6.4
2018-Feb-14 07:55N 28°07' W 015°24'2 5.3
2018-Feb-14 07:27N 28°09' W 015°25'0 0.0
2018-Feb-13 11:06N 28°09' W 015°25'0 2.9
2018-Feb-13 11:00N 28°09' W 015°25'1 1.7
2018-Feb-13 10:20N 28°08' W 015°25'0 0.0
2018-Feb-13 09:49N 28°08' W 015°25'0 0.0
2018-Feb-13 09:19N 28°07' W 015°25'0 0.0
2018-Feb-13 08:58N 28°07' W 015°25'0 0.1
2018-Feb-13 08:30N 28°07' W 015°25'1 2.7
2018-Feb-13 07:59N 28°09' W 015°25'0 0.0
2018-Feb-12 07:50N 28°09' W 015°25'0 0.0
2018-Feb-12 07:20N 28°09' W 015°25'0 0.0
2018-Feb-12 06:12N 28°09' W 015°25'1 7.1
2018-Feb-12 06:00N 28°07' W 015°25'3 5.8
2018-Feb-12 05:30N 28°07' W 015°21'1 2.8
2018-Feb-12 05:00N 28°07' W 015°23'3 4.8
2018-Feb-12 04:28N 28°09' W 015°25'0 0.0
2018-Feb-11 23:32N 28°09' W 015°25'0 0.0
2018-Feb-11 23:30N 28°09' W 015°25'2 4.2
2018-Feb-11 23:00N 28°07' W 015°25'2 0.7
2018-Feb-11 19:49N 28°09' W 015°25'2 6.0
2018-Feb-11 19:26N 28°07' W 015°24'1 1.6
2018-Feb-11 18:53N 28°08' W 015°25'1 3.2
2018-Feb-11 18:28N 28°09' W 015°25'0 0.0
2018-Feb-11 17:59N 28°09' W 015°25'3 6.7
2018-Feb-11 17:30N 28°06' W 015°24'1 2.0
2018-Feb-11 17:00N 28°07' W 015°24'2 4.5
2018-Feb-11 16:30N 28°09' W 015°25'1 2.0
2018-Feb-11 15:55N 28°08' W 015°25'0 1.1
2018-Feb-11 15:30N 28°07' W 015°24'2 3.7
2018-Feb-11 14:58N 28°06' W 015°23'2 4.9
2018-Feb-11 14:28N 28°08' W 015°25'1 0.3
2018-Feb-11 11:12N 28°09' W 015°25'2 5.6
2018-Feb-11 10:55N 28°07' W 015°25'1 2.8
2018-Feb-11 10:25N 28°09' W 015°25'0 0.3
2018-Feb-11 09:59N 28°09' W 015°25'2 3.9
2018-Feb-11 09:30N 28°07' W 015°25'3 6.4
2018-Feb-11 09:00N 28°05' W 015°22'1 2.5
2018-Feb-11 08:29N 28°06' W 015°22'2 3.2
2018-Feb-11 08:00N 28°07' W 015°23'  

Dump ship's entire track history